Latest Weather Observations for Narrabri

IDN60801

Issued at 6:32 pm EST Saturday 25 April 2015 (issued every 30 minutes, with the page automatically refreshed every 10 minutes)

About weather observations | Map of weather stations | Latest weather observations for NSW | Other Formats
Station Details ID: 054038 Name: NARRABRI AIRPORT AWS Lat: -30.32 Lon: 149.83 Height: 229.02 m
Data from the previous 72 hours. | See also: Recent months at Narrabri
Date/Time
EST
Temp
°C
App
Temp
°C
Dew
Point
Rel
Hum
%
Delta-T
°C
Wind Press
QNH
hPa
Press
MSL
hPa
Rain
since 9 am
mm
Dir
 
Spd
km/h
Gust
km/h
Spd
kts
Gust
kts
25/06:00pm 18.0 13.7 6.8 48 5.7 WNW 19 22 10 12 1008.4 1007.6 0.0
25/05:30pm 19.5 14.6 6.9 44 6.4 WNW 22 28 12 15 1008.0 1007.2 0.0
25/05:00pm 21.7 17.4 7.2 39 7.6 WNW 19 32 10 17 1007.7 1006.9 0.0
25/04:30pm 22.1 17.5 6.7 37 8.0 NW 20 30 11 16 1007.5 1006.7 0.0
25/04:00pm 22.7 17.6 6.0 34 8.6 NW 22 32 12 17 1007.4 1006.6 0.0
25/03:30pm 24.6 19.3 6.8 32 9.4 NW 24 35 13 19 1007.4 1006.6 0.0
25/03:00pm 24.7 19.0 6.9 32 9.4 NW 26 35 14 19 1007.4 1006.6 0.0
25/02:30pm 24.8 19.1 6.5 31 9.6 NW 26 41 14 22 1007.5 1006.7 0.0
25/02:00pm 23.2 17.7 6.0 33 8.9 NW 24 35 13 19 1007.7 1006.9 0.0
25/01:30pm 25.1 19.9 7.3 32 9.5 NW 24 39 13 21 1007.9 1007.1 0.0
25/01:00pm 24.7 19.0 8.2 35 8.9 NW 28 41 15 22 1008.3 1007.5 0.0
25/12:30pm 24.6 19.7 6.8 32 9.4 NNW 22 32 12 17 1008.6 1007.8 0.0
25/12:00pm 24.5 20.5 8.9 37 8.5 NNW 20 32 11 17 1009.1 1008.4 0.0
25/11:30am 23.9 19.6 9.5 40 7.9 NNW 22 30 12 16 1009.6 1008.9 0.0
25/11:00am 23.6 19.9 10.3 43 7.4 NNW 20 28 11 15 1009.9 1009.2 0.0
25/10:30am 22.8 19.1 9.6 43 7.2 NNW 19 26 10 14 1010.3 1009.6 0.0
25/10:00am 22.4 18.9 10.2 46 6.7 NNW 19 26 10 14 1010.4 1009.7 0.0
25/09:30am 21.5 20.0 11.8 54 5.5 NW 11 20 6 11 1010.4 1009.7 0.0
25/09:00am 17.1 16.9 13.6 80 2.0 WSW 7 11 4 6 1010.6 1009.9 0.0
25/08:30am 15.2 14.9 12.7 85 1.4 SW 6 7 3 4 1010.3 1009.6 0.0
25/08:00am 13.7 14.5 12.6 93 0.6 CALM 0 0 0 0 1010.3 1009.6 0.0
25/07:30am 11.7 11.5 11.7 100 0.0 WSW 4 7 2 4 1010.2 1009.5 0.0
25/07:00am 10.6 - - - - CALM 0 0 0 0 1009.9 1009.2 0.0
25/06:30am 9.9 9.9 9.9 100 0.0 CALM 0 0 0 0 1009.6 1008.9 0.0
25/06:00am 10.3 10.4 10.3 100 0.0 CALM 0 6 0 3 1009.4 1008.7 0.0
25/05:30am 10.7 10.6 10.7 100 0.0 SSE 2 6 1 3 1009.3 1008.6 0.0
25/05:00am 11.0 11.0 11.0 100 0.0 SSE 2 6 1 3 1009.2 1008.5 0.0
25/04:30am 10.9 11.0 10.3 96 0.3 CALM 0 0 0 0 1009.3 1008.6 0.0
25/04:00am 11.5 11.2 10.2 92 0.7 SSE 2 6 1 3 1009.4 1008.7 0.0
25/03:30am 12.4 11.3 9.8 84 1.3 SSE 6 13 3 7 1009.3 1008.6 0.0
25/03:00am 13.0 10.5 9.8 81 1.7 E 13 17 7 9 1009.4 1008.7 0.0
25/02:30am 13.4 11.6 9.6 78 2.0 ESE 9 15 5 8 1009.5 1008.8 0.0
25/02:00am 13.9 11.0 9.7 76 2.2 E 15 17 8 9 1009.6 1008.9 0.0
25/01:30am 13.9 10.6 9.7 76 2.2 E 17 19 9 10 1009.9 1009.2 0.0
25/01:00am 13.4 10.6 10.0 80 1.8 E 15 19 8 10 1010.2 1009.5 0.0
25/12:30am 13.2 10.1 10.4 83 1.5 E 17 20 9 11 1010.3 1009.6 0.0
25/12:00am 14.3 11.4 9.7 74 2.4 E 15 17 8 9 1010.4 1009.7 0.0
 
Date/Time
EST
Temp
°C
App
Temp
°C
Dew
Point
Rel
Hum
%
Delta-T
°C
Wind Press
QNH
hPa
Press
MSL
hPa
Rain
since 9 am
mm
Dir
 
Spd
km/h
Gust
km/h
Spd
kts
Gust
kts
24/11:30pm 14.4 11.9 9.6 73 2.5 E 13 15 7 8 1010.4 1009.7 0.0
24/11:00pm 14.8 12.2 9.4 70 2.8 E 13 15 7 8 1010.4 1009.7 0.0
24/10:30pm 15.0 12.5 9.6 70 2.8 E 13 15 7 8 1010.3 1009.6 0.0
24/10:00pm 15.4 12.9 9.7 69 3.0 E 13 15 7 8 1010.3 1009.6 0.0
24/09:30pm 15.0 12.6 10.0 72 2.6 E 13 13 7 7 1010.3 1009.6 0.0
24/09:00pm 14.7 13.3 9.7 72 2.6 NE 7 7 4 4 1010.3 1009.6 0.0
24/08:30pm 15.1 13.8 9.9 71 2.7 NE 7 9 4 5 1010.1 1009.4 0.0
24/08:00pm 14.9 14.3 10.5 75 2.3 N 4 7 2 4 1009.9 1009.2 0.0
24/07:30pm 16.0 14.0 10.1 68 3.1 N 11 13 6 7 1009.7 1009.0 0.0
24/07:00pm 16.5 14.6 10.4 67 3.3 N 11 11 6 6 1009.3 1008.6 0.0
24/06:30pm 16.5 14.7 10.8 69 3.1 N 11 11 6 6 1009.0 1008.3 0.0
24/06:00pm 17.8 15.9 10.4 62 4.0 NNW 11 13 6 7 1008.9 1008.2 0.0
24/05:30pm 19.6 17.6 10.0 54 5.2 NW 11 13 6 7 1008.6 1007.8 0.0
24/05:00pm 22.6 19.5 8.7 41 7.5 WNW 15 20 8 11 1008.4 1007.6 0.0
24/04:30pm 23.6 19.4 8.1 37 8.3 WNW 20 24 11 13 1008.2 1007.4 0.0
24/04:00pm 24.5 20.6 9.3 38 8.4 WNW 20 28 11 15 1008.1 1007.3 0.0
24/03:30pm 24.9 20.6 8.0 34 9.1 WNW 20 33 11 18 1008.1 1007.3 0.0
24/03:00pm 25.1 20.7 9.0 36 8.8 WNW 22 32 12 17 1008.2 1007.4 0.0
24/02:30pm 25.4 21.7 10.1 38 8.6 WNW 20 26 11 14 1008.2 1007.4 0.0
24/02:00pm 25.2 20.7 9.9 38 8.5 NW 24 28 13 15 1008.4 1007.6 0.0
24/01:30pm 25.3 21.9 11.1 41 8.1 NW 20 32 11 17 1008.5 1007.7 0.0
24/01:00pm 24.8 20.9 10.7 41 8.0 NW 22 32 12 17 1009.0 1008.3 0.0
24/12:30pm 24.0 20.8 12.0 47 6.9 NW 20 30 11 16 1009.4 1008.7 0.0
24/12:00pm 24.0 22.1 14.1 54 5.9 NW 17 24 9 13 1009.9 1009.2 0.0
24/11:30am 23.8 22.0 14.5 56 5.6 NNW 17 24 9 13 1010.5 1009.8 0.0
24/11:00am 23.3 21.6 14.6 58 5.2 NNW 17 26 9 14 1010.8 1010.1 0.0
24/10:30am 22.7 21.3 14.5 60 4.9 NW 15 20 8 11 1011.2 1010.5 0.0
24/10:00am 22.0 21.8 15.8 68 3.8 N 11 17 6 9 1011.2 1010.5 0.0
24/09:30am 21.0 19.9 15.3 70 3.4 NNW 15 19 8 10 1011.3 1010.6 0.0
24/09:00am 19.9 20.6 16.0 78 2.4 N 7 11 4 6 1011.3 1010.6 0.0
24/08:30am 18.1 19.3 16.8 92 0.8 N 6 9 3 5 1011.4 1010.7 0.0
24/08:00am 15.1 - - - - CALM 0 6 0 3 1011.4 1010.7 0.0
24/07:30am 14.8 - - - - W 2 7 1 4 1011.3 1010.6 0.0
24/07:00am 14.4 - - - - W 6 9 3 5 1010.8 1010.1 0.0
24/06:30am 14.3 - - - - CALM 0 0 0 0 1010.5 1009.8 0.0
24/06:00am 14.5 - - - - S 6 7 3 4 1010.1 1009.4 0.0
24/05:30am 15.2 15.6 15.2 100 0.0 E 7 11 4 6 1009.8 1009.1 0.0
24/05:00am 15.0 - - - - E 9 11 5 6 1009.8 1009.1 0.0
24/04:30am 14.3 14.3 14.3 100 0.0 ENE 7 7 4 4 1009.9 1009.2 0.0
24/04:00am 14.6 16.1 14.6 100 0.0 CALM 0 0 0 0 1009.9 1009.2 0.0
24/03:30am 15.4 14.9 14.8 96 0.3 ENE 11 13 6 7 1009.7 1009.0 0.0
24/03:00am 15.3 14.2 15.3 100 0.0 E 15 17 8 9 1009.7 1009.0 0.0
24/02:30am 15.2 16.0 14.7 97 0.3 E 4 7 2 4 1010.1 1009.4 0.0
24/02:00am 15.7 15.3 15.2 97 0.3 ENE 11 13 6 7 1010.2 1009.5 0.0
24/01:30am 16.0 15.2 15.0 94 0.6 E 13 13 7 7 1010.3 1009.6 0.0
24/01:00am 15.7 15.2 14.9 95 0.5 E 11 13 6 7 1010.7 1010.0 0.0
24/12:30am 15.9 15.0 14.9 94 0.6 E 13 19 7 10 1010.5 1009.8 0.0
24/12:00am 15.4 14.6 15.2 99 0.1 E 13 15 7 8 1010.9 1010.2 0.0
 
Date/Time
EST
Temp
°C
App
Temp
°C
Dew
Point
Rel
Hum
%
Delta-T
°C
Wind Press
QNH
hPa
Press
MSL
hPa
Rain
since 9 am
mm
Dir
 
Spd
km/h
Gust
km/h
Spd
kts
Gust
kts
23/11:30pm 15.5 14.2 14.9 96 0.3 E 15 19 8 10 1010.9 1010.2 0.0
23/11:00pm 15.8 15.3 14.8 94 0.6 E 11 13 6 7 1011.4 1010.7 0.0
23/10:30pm 16.2 15.0 15.1 93 0.6 E 15 15 8 8 1011.4 1010.7 0.0
23/10:00pm 16.1 15.4 15.5 96 0.4 E 13 15 7 8 1011.8 1011.0 0.0
23/09:30pm 16.0 15.4 15.7 98 0.2 E 13 15 7 8 1011.9 1011.1 0.0
23/09:00pm 16.1 16.2 15.5 96 0.4 E 9 9 5 5 1011.9 1011.1 0.0
23/08:30pm 16.5 17.6 15.5 94 0.6 S 4 7 2 4 1011.9 1011.1 0.0
23/08:00pm 17.1 16.6 15.8 92 0.8 ENE 13 15 7 8 1011.8 1011.0 0.0
23/07:30pm 17.4 16.8 15.7 90 1.0 ENE 13 15 7 8 1011.5 1010.8 0.0
23/07:00pm 16.9 17.2 15.9 94 0.6 N 9 11 5 6 1011.3 1010.6 0.0
23/06:30pm 16.6 18.2 15.0 90 0.9 CALM 0 0 0 0 1011.2 1010.5 0.0
23/06:00pm 17.9 18.6 14.6 81 1.9 NW 4 6 2 3 1010.8 1010.1 0.0
23/05:30pm 20.8 21.0 14.2 66 3.9 WNW 6 7 3 4 1010.5 1009.8 0.0
23/05:00pm 22.4 23.0 15.3 64 4.3 WNW 6 9 3 5 1010.2 1009.5 0.0
23/04:30pm 22.8 23.0 14.1 58 5.1 NW 6 9 3 5 1010.1 1009.4 0.0
23/04:00pm 23.0 22.8 13.5 55 5.6 NW 7 13 4 7 1010.2 1009.5 0.0
23/03:30pm 23.2 23.2 14.2 57 5.3 W 7 13 4 7 1010.4 1009.7 0.0
23/03:00pm 23.0 22.7 14.3 58 5.2 WNW 9 13 5 7 1010.4 1009.7 0.0
23/02:30pm 22.5 21.9 13.6 57 5.2 NW 9 13 5 7 1010.6 1009.9 0.0
23/02:00pm 22.5 21.9 13.6 57 5.2 NW 9 17 5 9 1010.7 1010.0 0.0
23/01:30pm 21.4 20.5 13.8 62 4.4 W 11 17 6 9 1010.8 1010.1 0.0
23/01:00pm 21.6 21.2 14.0 62 4.5 WNW 9 17 5 9 1011.4 1010.7 0.0
23/12:30pm 21.6 20.6 13.5 60 4.7 NW 11 17 6 9 1012.1 1011.3 0.0
23/12:00pm 21.1 19.7 13.5 62 4.4 WNW 13 17 7 9 1012.5 1011.7 0.0
23/11:30am 20.8 20.6 13.7 64 4.1 NW 7 11 4 6 1013.0 1012.3 0.0
23/11:00am 20.0 19.8 13.7 67 3.7 WNW 7 11 4 6 1013.5 1012.8 0.0
23/10:30am 19.1 18.8 12.6 66 3.7 NNW 6 11 3 6 1013.9 1013.2 0.0
23/10:00am 18.1 18.3 11.9 67 3.4 N 2 7 1 4 1014.2 1013.5 0.0
23/09:30am 17.5 17.9 12.6 73 2.8 NNW 2 7 1 4 1014.3 1013.6 0.0
23/09:00am 15.7 15.9 11.9 78 2.1 NW 2 6 1 3 1014.2 1013.5 0.2
23/08:30am 14.9 14.4 12.6 86 1.3 NNW 7 9 4 5 1014.2 1013.5 0.2
23/08:00am 14.4 15.2 13.8 96 0.3 NE 2 6 1 3 1014.1 1013.4 0.2
23/07:30am 13.0 - - - - ENE 7 11 4 6 1014.0 1013.3 0.2
23/07:00am 11.7 - - - - NE 9 11 5 6 1013.8 1013.1 0.2
23/06:30am 10.8 - - - - E 9 11 5 6 1013.5 1012.8 0.2
23/06:00am 11.1 - - - - E 13 15 7 8 1013.2 1012.5 0.2
23/05:30am 11.0 - - - - E 11 11 6 6 1013.1 1012.4 0.2
23/05:00am 11.2 - - - - ENE 9 11 5 6 1013.2 1012.5 0.2
23/04:30am 11.0 - - - - NE 9 9 5 5 1013.1 1012.4 0.2
23/04:00am 11.1 - - - - NNE 7 9 4 5 1012.9 1012.2 0.2
23/03:30am 11.4 - - - - ENE 9 9 5 5 1012.8 1012.1 0.2
23/03:00am 11.9 - - - - ENE 9 11 5 6 1012.7 1012.0 0.2
23/02:30am 11.8 - - - - ENE 9 9 5 5 1012.8 1012.1 0.2
23/02:00am 11.8 - - - - NE 7 9 4 5 1013.2 1012.5 0.2
23/01:30am 12.6 - - - - E 7 9 4 5 1013.5 1012.8 0.2
23/01:00am 12.6 - - - - ENE 7 9 4 5 1013.5 1012.8 0.2
23/12:30am 12.9 - - - - CALM 0 2 0 1 1013.8 1013.1 0.2
23/12:00am 13.2 - - - - ENE 9 11 5 6 1013.9 1013.2 0.2
 
Date/Time
EST
Temp
°C
App
Temp
°C
Dew
Point
Rel
Hum
%
Delta-T
°C
Wind Press
QNH
hPa
Press
MSL
hPa
Rain
since 9 am
mm
Dir
 
Spd
km/h
Gust
km/h
Spd
kts
Gust
kts
22/11:30pm 13.4 - - - - CALM 0 0 0 0 1014.0 1013.3 0.2
22/11:00pm 13.7 14.9 13.7 100 0.0 CALM 0 0 0 0 1014.3 1013.6 0.2
22/10:30pm 14.2 15.5 14.2 100 0.0 CALM 0 0 0 0 1014.5 1013.8 0.2
22/10:00pm 14.9 15.2 14.6 98 0.2 ENE 6 9 3 5 1014.6 1013.9 0.2
22/09:30pm 15.8 16.0 15.8 100 0.0 ENE 9 11 5 6 1014.7 1014.0 0.2
22/09:00pm 16.1 16.7 15.9 99 0.1 E 7 9 4 5 1014.7 1014.0 0.2
22/08:30pm 16.1 16.6 15.5 96 0.4 E 7 9 4 5 1014.5 1013.8 0.2
22/08:00pm 16.5 16.9 14.7 89 1.0 SSE 6 7 3 4 1014.4 1013.7 0.2
22/07:30pm 16.5 16.7 14.7 89 1.0 SSE 7 11 4 6 1014.2 1013.5 0.2
22/07:00pm 16.6 18.3 15.3 92 0.8 CALM 0 0 0 0 1014.3 1013.6 0.2

Other Formats:

Comma delimited format used in spreadsheet applications
http://www.bom.gov.au/fwo/IDN60801/IDN60801.95734.axf

JavaScript Object Notation format (JSON) in row-major order
http://www.bom.gov.au/fwo/IDN60801/IDN60801.95734.json